Upstream stations:
Downstream station:
SHEF ID: CLVO2 Canadian River at Calvin, OK
STATION TYPE:
Regulating: Stage = 17.00, Flow = 48538
PRECIP STAGE RIV-FLOW BAT-LOAD
in ft cfs volt
Ccp-Rev Ccp-Rev Ccp-Rev Ccp-Rev
(US/Central)
09/27 00:00 0.00 5.86 358 12.97
09/27 01:00 0.00 5.85 354 12.97
09/27 02:00 0.00 5.85 354 12.97
09/27 03:00 0.00 5.88 365 12.97
09/27 04:00 0.00 5.93 384 12.89
09/27 05:00 0.00 5.90 372 12.89
09/27 06:00 0.00 5.88 365 12.89
09/27 07:00 0.00 5.86 358 12.81
09/27 08:00 0.00 5.85 354 12.81
09/27 09:00 0.00 5.85 354 12.81
09/27 10:00 0.00 5.83 347 13.53
09/27 11:00 0.00 5.88 365 13.84
09/27 12:00 0.00 5.82 343 14.00
09/27 13:00 0.00 5.80 336 14.00
09/27 14:00 0.00 5.78 329 14.00
09/27 15:00 0.00 5.78 329 13.68
09/27 16:00 0.00 5.77 326 13.68
09/27 17:00 0.00 5.76 322 13.68
09/27 18:00 0.00 5.76 322 13.60
09/27 19:00 0.00 5.77 326 13.29
09/27 20:00 0.00 5.77 326 13.05
09/27 21:00 0.00 5.77 326 12.97
09/27 22:00 0.00 5.78 329 12.97
09/27 23:00 0.00 5.78 329 12.97